createdAt,value
2019-05-19T00:03:57.717Z,999.90
2019-05-19T00:09:01.425Z,999.90
2019-05-19T00:14:05.575Z,999.90
2019-05-19T00:19:09.614Z,999.90
2019-05-19T00:24:13.651Z,999.90
2019-05-19T00:29:17.711Z,952.80
2019-05-19T00:34:21.677Z,989.33
2019-05-19T00:39:25.722Z,999.90
2019-05-19T00:44:29.776Z,955.37
2019-05-19T00:49:40.847Z,920.50
2019-05-19T00:54:38.941Z,867.77
2019-05-19T00:59:42.775Z,993.33
2019-05-19T01:04:46.922Z,873.70
2019-05-19T01:09:51.163Z,999.90
2019-05-19T01:14:55.672Z,999.90
2019-05-19T01:20:00.281Z,999.90
2019-05-19T01:25:05.829Z,999.90
2019-05-19T01:30:10.638Z,967.13
2019-05-19T01:35:14.510Z,997.40
2019-05-19T01:40:18.370Z,999.90
2019-05-19T01:45:22.158Z,900.63
2019-05-19T01:50:25.886Z,921.13
2019-05-19T01:55:29.888Z,983.87
2019-05-19T02:00:33.622Z,983.07
2019-05-19T02:05:37.336Z,959.63
2019-05-19T02:10:41.207Z,999.90
2019-05-19T02:15:44.945Z,999.90
2019-05-19T02:20:48.737Z,870.90
2019-05-19T02:25:52.425Z,991.30
2019-05-19T02:30:56.102Z,958.27
2019-05-19T02:35:59.827Z,994.43
2019-05-19T02:41:05.293Z,999.90
2019-05-19T02:46:10.330Z,980.17
2019-05-19T02:51:16.614Z,934.30
2019-05-19T02:56:20.969Z,944.10
2019-05-19T03:01:24.744Z,999.90
2019-05-19T03:06:28.487Z,999.90
2019-05-19T03:11:32.309Z,999.90
2019-05-19T03:16:36.357Z,993.30
2019-05-19T03:21:40.142Z,985.50
2019-05-19T03:26:43.917Z,999.90
2019-05-19T03:31:54.102Z,914.33
2019-05-19T03:36:57.810Z,991.67
2019-05-19T03:42:01.523Z,932.47
2019-05-19T03:47:05.250Z,999.90
2019-05-19T03:52:11.027Z,999.90
2019-05-19T03:57:15.083Z,999.90
2019-05-19T04:02:18.790Z,999.90
2019-05-19T04:07:22.647Z,999.90
2019-05-19T04:12:26.348Z,999.90
2019-05-19T04:17:30.272Z,999.90
2019-05-19T04:22:34.090Z,999.90
2019-05-19T04:27:38.182Z,999.90
2019-05-19T04:32:42.248Z,999.90
2019-05-19T04:37:46.030Z,995.43
2019-05-19T04:42:49.725Z,999.90
2019-05-19T04:47:53.478Z,924.83
2019-05-19T04:52:57.334Z,999.90
2019-05-19T04:58:01.398Z,908.03
2019-05-19T05:03:05.318Z,999.90
2019-05-19T05:08:27.169Z,835.03
2019-05-19T05:13:14.487Z,999.90
2019-05-19T05:18:18.207Z,536.90
2019-05-19T05:23:21.927Z,999.90
2019-05-19T05:28:25.743Z,999.90
2019-05-19T05:33:29.859Z,999.90
2019-05-19T05:38:33.961Z,999.90
2019-05-19T05:43:38.324Z,999.90
2019-05-19T05:48:42.133Z,999.90
2019-05-19T05:53:46.021Z,999.90
2019-05-19T05:58:49.717Z,999.90
2019-05-19T06:03:53.524Z,999.90
2019-05-19T06:08:57.473Z,456.10
2019-05-19T06:14:01.301Z,602.30
2019-05-19T06:19:05.087Z,999.90
2019-05-19T06:24:09.843Z,999.90
2019-05-19T06:29:13.567Z,999.90
2019-05-19T06:34:17.902Z,999.90
2019-05-19T06:39:21.628Z,999.90
2019-05-19T06:44:25.350Z,999.90
2019-05-19T06:49:29.088Z,999.90
2019-05-19T06:54:33.111Z,999.90
2019-05-19T06:59:37.103Z,999.90
2019-05-19T07:04:41.217Z,999.90
2019-05-19T07:09:57.426Z,999.90
2019-05-19T07:14:50.618Z,999.90
2019-05-19T07:19:54.357Z,999.90
2019-05-19T07:24:58.109Z,964.23
2019-05-19T07:30:01.823Z,999.90
2019-05-19T07:35:06.798Z,999.90
2019-05-19T07:40:11.023Z,999.90
2019-05-19T07:45:16.302Z,999.90
2019-05-19T07:50:20.400Z,999.90
2019-05-19T07:55:24.194Z,999.90
2019-05-19T08:00:28.244Z,999.90
2019-05-19T08:05:32.325Z,999.90
2019-05-19T08:10:36.176Z,999.90
2019-05-19T08:15:40.019Z,999.90
2019-05-19T08:20:44.305Z,999.90
2019-05-19T08:25:48.286Z,999.90
2019-05-19T08:30:52.681Z,999.90
2019-05-19T08:35:56.875Z,897.50
2019-05-19T08:41:03.950Z,951.27
2019-05-19T08:46:08.908Z,999.90
2019-05-19T08:51:13.314Z,999.90
2019-05-19T08:56:17.395Z,999.90
2019-05-19T09:01:21.231Z,999.90
2019-05-19T09:06:25.344Z,999.90
2019-05-19T09:11:29.096Z,999.90
2019-05-19T09:16:33.090Z,999.90
2019-05-19T09:21:36.782Z,999.90
2019-05-19T09:26:41.076Z,999.90
2019-05-19T09:31:44.910Z,999.90
2019-05-19T09:36:49.244Z,999.90
2019-05-19T09:41:53.029Z,999.90
2019-05-19T09:46:56.970Z,999.90
2019-05-19T09:52:01.376Z,999.90
2019-05-19T09:57:05.793Z,999.90
2019-05-19T10:02:10.002Z,999.90
2019-05-19T10:07:13.875Z,999.90
2019-05-19T10:12:17.624Z,999.90
2019-05-19T10:17:21.442Z,999.90
2019-05-19T10:22:25.157Z,999.90
2019-05-19T10:27:29.188Z,999.90
2019-05-19T10:32:32.960Z,999.90
2019-05-19T10:37:36.767Z,999.90
2019-05-19T10:42:40.652Z,999.90
2019-05-19T10:47:44.419Z,999.90
2019-05-19T10:52:48.505Z,999.90
2019-05-19T10:57:52.249Z,999.90
2019-05-19T11:02:56.389Z,999.90
2019-05-19T11:08:00.528Z,999.90
2019-05-19T11:13:04.474Z,999.90
2019-05-19T11:18:08.312Z,999.90
2019-05-19T11:23:12.041Z,999.90
2019-05-19T11:28:15.814Z,999.90
2019-05-19T11:33:19.562Z,999.90
2019-05-19T11:38:23.525Z,999.90
2019-05-19T11:43:27.513Z,999.90
2019-05-19T11:48:31.610Z,999.90
2019-05-19T11:53:35.707Z,999.90
2019-05-19T11:58:39.692Z,999.90
2019-05-19T12:03:43.762Z,999.90
2019-05-19T12:08:47.559Z,999.90
2019-05-19T12:13:51.562Z,999.90
2019-05-19T12:18:57.436Z,999.90
2019-05-19T12:24:00.818Z,999.90
2019-05-19T12:29:04.734Z,999.90
2019-05-19T12:34:08.725Z,999.90
2019-05-19T12:39:12.525Z,999.90
2019-05-19T12:44:16.334Z,999.90
2019-05-19T12:49:20.589Z,999.90
2019-05-19T12:54:24.582Z,999.90
2019-05-19T12:59:28.283Z,999.90
2019-05-19T13:04:32.318Z,999.90
2019-05-19T13:09:36.057Z,999.90
2019-05-19T13:14:40.262Z,999.90
2019-05-19T13:19:44.230Z,999.90
2019-05-19T13:24:48.070Z,999.90
2019-05-19T13:29:51.849Z,799.63
2019-05-19T13:34:55.649Z,978.83
2019-05-19T13:39:59.434Z,884.23
2019-05-19T13:45:03.167Z,804.30
2019-05-19T13:50:07.088Z,254.97
2019-05-19T13:55:11.079Z,162.03
2019-05-19T14:00:16.458Z,86.43
2019-05-19T14:05:20.738Z,56.53
2019-05-19T14:10:24.702Z,42.33
2019-05-19T14:15:28.765Z,55.47
2019-05-19T14:20:32.454Z,41.03
2019-05-19T14:25:36.265Z,61.90
2019-05-19T14:30:40.035Z,41.23
2019-05-19T14:35:44.034Z,461.07
2019-05-19T14:40:47.934Z,109.20
2019-05-19T14:45:51.838Z,125.40
2019-05-19T14:50:56.584Z,82.53
2019-05-19T14:56:00.431Z,307.00
2019-05-19T15:01:04.558Z,642.03
2019-05-19T15:06:08.523Z,817.43
2019-05-19T15:11:12.294Z,999.90
2019-05-19T15:16:16.122Z,999.90
2019-05-19T15:21:19.867Z,896.80
2019-05-19T15:26:23.998Z,755.17
2019-05-19T15:31:27.786Z,798.43
2019-05-19T15:36:31.794Z,999.90
2019-05-19T15:41:35.547Z,999.90
2019-05-19T15:46:39.373Z,999.90
2019-05-19T15:51:59.419Z,999.90
2019-05-19T15:56:48.769Z,835.30
2019-05-19T16:01:52.958Z,969.67
2019-05-19T16:06:56.757Z,919.67
2019-05-19T16:12:00.538Z,752.97
2019-05-19T16:17:05.175Z,895.97
2019-05-19T16:22:09.274Z,795.60
2019-05-19T16:27:13.476Z,753.67
2019-05-19T16:32:18.568Z,729.73
2019-05-19T16:37:22.729Z,727.97
2019-05-19T16:42:26.834Z,880.40
2019-05-19T16:47:31.795Z,871.73
2019-05-19T16:52:35.876Z,699.50
2019-05-19T16:57:40.269Z,377.17
2019-05-19T17:02:44.450Z,999.90
2019-05-19T17:07:52.140Z,999.90
2019-05-19T17:12:56.239Z,999.90
2019-05-19T17:18:00.114Z,999.90
2019-05-19T17:23:04.158Z,999.90
2019-05-19T17:28:07.870Z,771.67
2019-05-19T17:33:11.916Z,211.80
2019-05-19T17:38:16.250Z,386.60
2019-05-19T17:43:19.983Z,666.07
2019-05-19T17:48:27.199Z,982.30
2019-05-19T17:53:30.520Z,906.17
2019-05-19T17:58:35.037Z,940.27
2019-05-19T18:03:39.349Z,992.70
2019-05-19T18:08:43.607Z,999.90
2019-05-19T18:13:47.307Z,999.90
2019-05-19T18:18:51.001Z,999.90
2019-05-19T18:23:54.712Z,999.90
2019-05-19T18:28:58.443Z,999.90
2019-05-19T18:34:02.324Z,999.90
2019-05-19T18:39:06.625Z,958.87
2019-05-19T18:44:10.382Z,849.27
2019-05-19T18:49:14.222Z,652.93
2019-05-19T18:54:17.932Z,479.30
2019-05-19T18:59:21.739Z,439.23
2019-05-19T19:04:25.698Z,372.77
2019-05-19T19:09:29.843Z,441.80
2019-05-19T19:14:33.907Z,248.23
2019-05-19T19:19:37.618Z,135.30
2019-05-19T19:24:41.621Z,129.03
2019-05-19T19:29:45.674Z,101.87
2019-05-19T19:34:49.409Z,59.43
2019-05-19T19:39:53.183Z,116.57
2019-05-19T19:44:57.646Z,52.30
2019-05-19T19:50:01.367Z,59.97
2019-05-19T19:55:05.258Z,57.00
2019-05-19T20:00:17.811Z,60.47
2019-05-19T20:05:15.143Z,43.53
2019-05-19T20:10:18.914Z,43.30
2019-05-19T20:15:22.933Z,45.20
2019-05-19T20:20:26.719Z,51.47
2019-05-19T20:25:30.443Z,62.53
2019-05-19T20:30:36.061Z,55.07
2019-05-19T20:35:39.862Z,45.07
2019-05-19T20:40:43.943Z,39.60
2019-05-19T20:45:47.930Z,37.83
2019-05-19T20:50:51.895Z,44.17
2019-05-19T20:55:56.018Z,43.87
2019-05-19T21:01:00.213Z,41.07
2019-05-19T21:06:04.121Z,44.83
2019-05-19T21:11:07.815Z,41.17
2019-05-19T21:16:12.020Z,47.37
2019-05-19T21:21:15.966Z,41.67
2019-05-19T21:26:19.852Z,51.03
2019-05-19T21:31:24.069Z,108.50
2019-05-19T21:36:28.195Z,118.33
2019-05-19T21:41:32.591Z,125.07
2019-05-19T21:46:37.301Z,171.10
2019-05-19T21:51:41.184Z,129.83
2019-05-19T21:56:45.734Z,137.90
2019-05-19T22:01:49.689Z,153.77
2019-05-19T22:07:04.987Z,131.20
2019-05-19T22:12:09.105Z,124.80
2019-05-19T22:17:13.170Z,127.90
2019-05-19T22:22:16.881Z,118.37
2019-05-19T22:27:21.002Z,106.37
2019-05-19T22:32:25.403Z,122.03
2019-05-19T22:37:29.663Z,141.63
2019-05-19T22:42:33.669Z,96.90
2019-05-19T22:47:37.376Z,103.43
2019-05-19T22:52:41.421Z,177.60
2019-05-19T22:57:45.368Z,115.00
2019-05-19T23:02:49.731Z,95.73
2019-05-19T23:07:53.924Z,120.60
2019-05-19T23:12:59.642Z,82.43
2019-05-19T23:18:04.358Z,129.03
2019-05-19T23:23:08.141Z,98.50
2019-05-19T23:28:11.833Z,101.03
2019-05-19T23:33:15.599Z,84.93
2019-05-19T23:38:19.350Z,102.00
2019-05-19T23:56:18.220Z,224.53
